sensor_id;sensor_type;location;lat;lon;timestamp;P1;durP1;ratioP1;P2;durP2;ratioP2
63346;SDS011;49472;49.880;8.650;2023-04-24T00:00:30;8.17;;;6.80;;
63346;SDS011;49472;49.880;8.650;2023-04-24T00:02:56;7.93;;;7.23;;
63346;SDS011;49472;49.880;8.650;2023-04-24T00:05:22;10.00;;;7.33;;
63346;SDS011;49472;49.880;8.650;2023-04-24T00:07:48;7.13;;;6.73;;
63346;SDS011;49472;49.880;8.650;2023-04-24T00:10:14;7.53;;;7.13;;
63346;SDS011;49472;49.880;8.650;2023-04-24T00:12:39;7.53;;;7.17;;
63346;SDS011;49472;49.880;8.650;2023-04-24T00:15:04;7.40;;;7.00;;
63346;SDS011;49472;49.880;8.650;2023-04-24T00:17:30;7.60;;;7.10;;
63346;SDS011;49472;49.880;8.650;2023-04-24T00:19:56;7.33;;;6.77;;
63346;SDS011;49472;49.880;8.650;2023-04-24T00:22:26;6.83;;;6.53;;
63346;SDS011;49472;49.880;8.650;2023-04-24T00:24:53;7.37;;;6.87;;
63346;SDS011;49472;49.880;8.650;2023-04-24T00:27:18;6.83;;;6.53;;
63346;SDS011;49472;49.880;8.650;2023-04-24T00:29:43;7.10;;;6.70;;
63346;SDS011;49472;49.880;8.650;2023-04-24T00:32:09;7.67;;;7.13;;
63346;SDS011;49472;49.880;8.650;2023-04-24T00:34:34;8.07;;;7.37;;
63346;SDS011;49472;49.880;8.650;2023-04-24T00:37:00;7.47;;;6.97;;
63346;SDS011;49472;49.880;8.650;2023-04-24T00:39:25;8.07;;;7.30;;
63346;SDS011;49472;49.880;8.650;2023-04-24T00:41:51;7.10;;;6.70;;
63346;SDS011;49472;49.880;8.650;2023-04-24T00:44:17;8.20;;;7.40;;
63346;SDS011;49472;49.880;8.650;2023-04-24T00:46:43;7.40;;;7.00;;
63346;SDS011;49472;49.880;8.650;2023-04-24T00:49:08;7.23;;;6.83;;
63346;SDS011;49472;49.880;8.650;2023-04-24T00:51:34;7.93;;;7.43;;
63346;SDS011;49472;49.880;8.650;2023-04-24T00:54:01;7.50;;;7.00;;
63346;SDS011;49472;49.880;8.650;2023-04-24T00:56:27;7.50;;;7.00;;
63346;SDS011;49472;49.880;8.650;2023-04-24T00:58:53;8.17;;;7.43;;
63346;SDS011;49472;49.880;8.650;2023-04-24T01:01:21;7.70;;;7.30;;
63346;SDS011;49472;49.880;8.650;2023-04-24T01:03:48;7.67;;;7.17;;
63346;SDS011;49472;49.880;8.650;2023-04-24T01:06:15;7.20;;;6.87;;
63346;SDS011;49472;49.880;8.650;2023-04-24T01:08:41;7.43;;;7.03;;
63346;SDS011;49472;49.880;8.650;2023-04-24T01:11:08;7.77;;;7.27;;
63346;SDS011;49472;49.880;8.650;2023-04-24T01:13:33;7.40;;;7.00;;
63346;SDS011;49472;49.880;8.650;2023-04-24T01:16:00;8.57;;;7.67;;
63346;SDS011;49472;49.880;8.650;2023-04-24T01:18:26;8.10;;;7.30;;
63346;SDS011;49472;49.880;8.650;2023-04-24T01:20:52;8.00;;;7.30;;
63346;SDS011;49472;49.880;8.650;2023-04-24T01:23:21;8.10;;;7.50;;
63346;SDS011;49472;49.880;8.650;2023-04-24T01:25:47;7.40;;;7.00;;
63346;SDS011;49472;49.880;8.650;2023-04-24T01:28:13;7.60;;;7.20;;
63346;SDS011;49472;49.880;8.650;2023-04-24T01:30:39;11.90;;;7.57;;
63346;SDS011;49472;49.880;8.650;2023-04-24T01:33:07;8.07;;;7.20;;
63346;SDS011;49472;49.880;8.650;2023-04-24T01:35:32;7.53;;;6.97;;
63346;SDS011;49472;49.880;8.650;2023-04-24T01:37:58;8.23;;;7.50;;
63346;SDS011;49472;49.880;8.650;2023-04-24T01:40:23;7.57;;;7.10;;
63346;SDS011;49472;49.880;8.650;2023-04-24T01:42:49;7.50;;;7.00;;
63346;SDS011;49472;49.880;8.650;2023-04-24T01:45:14;7.93;;;7.53;;
63346;SDS011;49472;49.880;8.650;2023-04-24T01:47:40;7.70;;;7.20;;
63346;SDS011;49472;49.880;8.650;2023-04-24T01:50:05;7.90;;;7.27;;
63346;SDS011;49472;49.880;8.650;2023-04-24T01:52:31;8.20;;;7.70;;
63346;SDS011;49472;49.880;8.650;2023-04-24T01:55:02;7.10;;;6.70;;
63346;SDS011;49472;49.880;8.650;2023-04-24T01:57:31;8.77;;;7.30;;
63346;SDS011;49472;49.880;8.650;2023-04-24T01:59:56;8.50;;;7.70;;
63346;SDS011;49472;49.880;8.650;2023-04-24T02:02:22;10.07;;;6.83;;
63346;SDS011;49472;49.880;8.650;2023-04-24T02:04:49;10.23;;;7.87;;
63346;SDS011;49472;49.880;8.650;2023-04-24T02:07:15;7.60;;;7.00;;
63346;SDS011;49472;49.880;8.650;2023-04-24T02:09:40;7.00;;;6.70;;
63346;SDS011;49472;49.880;8.650;2023-04-24T02:12:06;10.80;;;7.00;;
63346;SDS011;49472;49.880;8.650;2023-04-24T02:14:31;7.40;;;7.00;;
63346;SDS011;49472;49.880;8.650;2023-04-24T02:16:57;7.97;;;7.23;;
63346;SDS011;49472;49.880;8.650;2023-04-24T02:19:22;7.73;;;7.07;;
63346;SDS011;49472;49.880;8.650;2023-04-24T02:21:48;8.53;;;7.53;;
63346;SDS011;49472;49.880;8.650;2023-04-24T02:24:13;7.40;;;7.00;;
63346;SDS011;49472;49.880;8.650;2023-04-24T02:26:38;10.10;;;9.20;;
63346;SDS011;49472;49.880;8.650;2023-04-24T02:29:04;7.53;;;7.00;;
63346;SDS011;49472;49.880;8.650;2023-04-24T02:31:29;8.03;;;7.43;;
63346;SDS011;49472;49.880;8.650;2023-04-24T02:33:54;7.57;;;6.93;;
63346;SDS011;49472;49.880;8.650;2023-04-24T02:36:20;7.30;;;6.87;;
63346;SDS011;49472;49.880;8.650;2023-04-24T02:38:46;8.17;;;7.40;;
63346;SDS011;49472;49.880;8.650;2023-04-24T02:41:11;7.70;;;7.10;;
63346;SDS011;49472;49.880;8.650;2023-04-24T02:43:36;7.30;;;6.90;;
63346;SDS011;49472;49.880;8.650;2023-04-24T02:46:01;8.50;;;6.90;;
63346;SDS011;49472;49.880;8.650;2023-04-24T02:48:27;7.17;;;6.77;;
63346;SDS011;49472;49.880;8.650;2023-04-24T02:50:53;7.63;;;7.00;;
63346;SDS011;49472;49.880;8.650;2023-04-24T02:53:18;8.20;;;7.40;;
63346;SDS011;49472;49.880;8.650;2023-04-24T02:55:44;7.17;;;6.67;;
63346;SDS011;49472;49.880;8.650;2023-04-24T02:58:11;7.20;;;6.80;;
63346;SDS011;49472;49.880;8.650;2023-04-24T03:00:38;7.60;;;7.10;;
63346;SDS011;49472;49.880;8.650;2023-04-24T03:03:03;7.47;;;6.70;;
63346;SDS011;49472;49.880;8.650;2023-04-24T03:05:29;6.93;;;6.53;;
63346;SDS011;49472;49.880;8.650;2023-04-24T03:07:55;7.30;;;6.80;;
63346;SDS011;49472;49.880;8.650;2023-04-24T03:10:21;7.17;;;6.60;;
63346;SDS011;49472;49.880;8.650;2023-04-24T03:12:47;7.20;;;6.60;;
63346;SDS011;49472;49.880;8.650;2023-04-24T03:15:13;7.60;;;6.77;;
63346;SDS011;49472;49.880;8.650;2023-04-24T03:17:38;6.63;;;6.23;;
63346;SDS011;49472;49.880;8.650;2023-04-24T03:20:03;7.80;;;6.10;;
63346;SDS011;49472;49.880;8.650;2023-04-24T03:22:30;7.13;;;6.43;;
63346;SDS011;49472;49.880;8.650;2023-04-24T03:24:57;6.63;;;6.00;;
63346;SDS011;49472;49.880;8.650;2023-04-24T03:27:23;9.43;;;6.43;;
63346;SDS011;49472;49.880;8.650;2023-04-24T03:29:49;6.67;;;5.47;;
63346;SDS011;49472;49.880;8.650;2023-04-24T03:32:18;6.23;;;5.80;;
63346;SDS011;49472;49.880;8.650;2023-04-24T03:34:44;6.97;;;6.27;;
63346;SDS011;49472;49.880;8.650;2023-04-24T03:37:09;6.73;;;6.17;;
63346;SDS011;49472;49.880;8.650;2023-04-24T03:39:34;7.03;;;6.27;;
63346;SDS011;49472;49.880;8.650;2023-04-24T03:42:00;7.93;;;6.23;;
63346;SDS011;49472;49.880;8.650;2023-04-24T03:44:25;6.57;;;6.17;;
63346;SDS011;49472;49.880;8.650;2023-04-24T03:46:50;6.67;;;6.27;;
63346;SDS011;49472;49.880;8.650;2023-04-24T03:49:16;7.40;;;6.67;;
63346;SDS011;49472;49.880;8.650;2023-04-24T03:51:41;6.63;;;6.00;;
63346;SDS011;49472;49.880;8.650;2023-04-24T03:54:07;6.47;;;6.13;;
63346;SDS011;49472;49.880;8.650;2023-04-24T03:56:32;7.83;;;7.20;;
63346;SDS011;49472;49.880;8.650;2023-04-24T03:58:57;6.73;;;6.23;;
63346;SDS011;49472;49.880;8.650;2023-04-24T04:01:22;7.07;;;6.67;;
63346;SDS011;49472;49.880;8.650;2023-04-24T04:03:49;6.80;;;6.30;;
63346;SDS011;49472;49.880;8.650;2023-04-24T04:06:14;7.43;;;6.73;;
63346;SDS011;49472;49.880;8.650;2023-04-24T04:08:40;7.60;;;6.90;;
63346;SDS011;49472;49.880;8.650;2023-04-24T04:11:05;7.47;;;6.97;;
63346;SDS011;49472;49.880;8.650;2023-04-24T04:13:30;9.97;;;7.50;;
63346;SDS011;49472;49.880;8.650;2023-04-24T04:15:56;8.23;;;7.40;;
63346;SDS011;49472;49.880;8.650;2023-04-24T04:18:21;8.20;;;7.70;;
63346;SDS011;49472;49.880;8.650;2023-04-24T04:20:47;11.53;;;8.07;;
63346;SDS011;49472;49.880;8.650;2023-04-24T04:23:13;8.60;;;7.80;;
63346;SDS011;49472;49.880;8.650;2023-04-24T04:25:38;8.60;;;8.00;;
63346;SDS011;49472;49.880;8.650;2023-04-24T04:28:03;8.27;;;7.77;;
63346;SDS011;49472;49.880;8.650;2023-04-24T04:30:29;8.60;;;7.90;;
63346;SDS011;49472;49.880;8.650;2023-04-24T04:32:57;8.97;;;8.23;;
63346;SDS011;49472;49.880;8.650;2023-04-24T04:35:22;9.83;;;9.13;;
63346;SDS011;49472;49.880;8.650;2023-04-24T04:37:48;10.23;;;9.33;;
63346;SDS011;49472;49.880;8.650;2023-04-24T04:40:14;9.60;;;8.90;;
63346;SDS011;49472;49.880;8.650;2023-04-24T04:42:39;9.67;;;9.03;;
63346;SDS011;49472;49.880;8.650;2023-04-24T04:45:06;10.13;;;9.50;;
63346;SDS011;49472;49.880;8.650;2023-04-24T04:47:33;9.17;;;8.60;;
63346;SDS011;49472;49.880;8.650;2023-04-24T04:49:59;9.80;;;9.10;;
63346;SDS011;49472;49.880;8.650;2023-04-24T04:52:25;11.63;;;9.00;;
63346;SDS011;49472;49.880;8.650;2023-04-24T04:54:51;9.70;;;8.80;;
63346;SDS011;49472;49.880;8.650;2023-04-24T04:57:17;10.03;;;9.13;;
63346;SDS011;49472;49.880;8.650;2023-04-24T04:59:42;10.17;;;9.37;;
63346;SDS011;49472;49.880;8.650;2023-04-24T05:02:08;10.00;;;9.30;;
63346;SDS011;49472;49.880;8.650;2023-04-24T05:04:33;10.60;;;9.60;;
63346;SDS011;49472;49.880;8.650;2023-04-24T05:06:59;11.43;;;10.30;;
63346;SDS011;49472;49.880;8.650;2023-04-24T05:09:24;10.70;;;10.00;;
63346;SDS011;49472;49.880;8.650;2023-04-24T05:11:52;11.87;;;10.80;;
63346;SDS011;49472;49.880;8.650;2023-04-24T05:14:17;10.67;;;10.07;;
63346;SDS011;49472;49.880;8.650;2023-04-24T05:16:44;10.70;;;9.97;;
63346;SDS011;49472;49.880;8.650;2023-04-24T05:19:09;11.20;;;10.40;;
63346;SDS011;49472;49.880;8.650;2023-04-24T05:21:36;11.33;;;10.60;;
63346;SDS011;49472;49.880;8.650;2023-04-24T05:24:02;12.83;;;10.70;;
63346;SDS011;49472;49.880;8.650;2023-04-24T05:26:27;10.87;;;10.17;;
63346;SDS011;49472;49.880;8.650;2023-04-24T05:28:53;13.23;;;10.80;;
63346;SDS011;49472;49.880;8.650;2023-04-24T05:31:18;11.13;;;10.33;;
63346;SDS011;49472;49.880;8.650;2023-04-24T05:33:43;12.03;;;11.10;;
63346;SDS011;49472;49.880;8.650;2023-04-24T05:36:09;11.50;;;10.47;;
63346;SDS011;49472;49.880;8.650;2023-04-24T05:38:35;11.60;;;10.70;;
63346;SDS011;49472;49.880;8.650;2023-04-24T05:41:00;12.77;;;11.77;;
63346;SDS011;49472;49.880;8.650;2023-04-24T05:43:25;11.77;;;10.77;;
63346;SDS011;49472;49.880;8.650;2023-04-24T05:45:51;11.03;;;10.33;;
63346;SDS011;49472;49.880;8.650;2023-04-24T05:48:18;11.70;;;10.90;;
63346;SDS011;49472;49.880;8.650;2023-04-24T05:50:43;12.40;;;11.13;;
63346;SDS011;49472;49.880;8.650;2023-04-24T05:53:09;11.80;;;11.00;;
63346;SDS011;49472;49.880;8.650;2023-04-24T05:55:35;12.60;;;11.60;;
63346;SDS011;49472;49.880;8.650;2023-04-24T05:58:01;13.33;;;12.03;;
63346;SDS011;49472;49.880;8.650;2023-04-24T06:00:27;12.20;;;11.30;;
63346;SDS011;49472;49.880;8.650;2023-04-24T06:02:53;11.23;;;10.50;;
63346;SDS011;49472;49.880;8.650;2023-04-24T06:05:19;12.40;;;11.33;;
63346;SDS011;49472;49.880;8.650;2023-04-24T06:07:44;12.10;;;11.20;;
63346;SDS011;49472;49.880;8.650;2023-04-24T06:10:10;13.80;;;12.43;;
63346;SDS011;49472;49.880;8.650;2023-04-24T06:12:36;12.87;;;11.97;;
63346;SDS011;49472;49.880;8.650;2023-04-24T06:15:02;12.60;;;11.70;;
63346;SDS011;49472;49.880;8.650;2023-04-24T06:17:28;12.93;;;11.93;;
63346;SDS011;49472;49.880;8.650;2023-04-24T06:19:53;13.80;;;12.67;;
63346;SDS011;49472;49.880;8.650;2023-04-24T06:22:19;12.60;;;11.70;;
63346;SDS011;49472;49.880;8.650;2023-04-24T06:24:44;13.20;;;12.20;;
63346;SDS011;49472;49.880;8.650;2023-04-24T06:27:09;22.23;;;12.77;;
63346;SDS011;49472;49.880;8.650;2023-04-24T06:29:35;14.30;;;13.03;;
63346;SDS011;49472;49.880;8.650;2023-04-24T06:32:02;17.93;;;14.60;;
63346;SDS011;49472;49.880;8.650;2023-04-24T06:34:27;20.67;;;13.00;;
63346;SDS011;49472;49.880;8.650;2023-04-24T06:36:52;20.63;;;13.53;;
63346;SDS011;49472;49.880;8.650;2023-04-24T06:39:19;14.03;;;12.43;;
63346;SDS011;49472;49.880;8.650;2023-04-24T06:41:45;13.73;;;12.23;;
63346;SDS011;49472;49.880;8.650;2023-04-24T06:44:10;15.03;;;13.63;;
63346;SDS011;49472;49.880;8.650;2023-04-24T06:46:35;14.17;;;13.03;;
63346;SDS011;49472;49.880;8.650;2023-04-24T06:49:00;14.70;;;13.30;;
63346;SDS011;49472;49.880;8.650;2023-04-24T06:51:26;16.83;;;14.20;;
63346;SDS011;49472;49.880;8.650;2023-04-24T06:53:52;43.07;;;16.50;;
63346;SDS011;49472;49.880;8.650;2023-04-24T06:56:18;15.53;;;13.83;;
63346;SDS011;49472;49.880;8.650;2023-04-24T06:58:45;15.77;;;14.43;;
63346;SDS011;49472;49.880;8.650;2023-04-24T07:01:10;15.40;;;13.87;;
63346;SDS011;49472;49.880;8.650;2023-04-24T07:03:36;16.07;;;14.47;;
63346;SDS011;49472;49.880;8.650;2023-04-24T07:06:02;15.30;;;14.10;;
63346;SDS011;49472;49.880;8.650;2023-04-24T07:08:29;16.13;;;14.60;;
63346;SDS011;49472;49.880;8.650;2023-04-24T07:10:55;15.03;;;13.83;;
63346;SDS011;49472;49.880;8.650;2023-04-24T07:13:21;15.17;;;13.77;;
63346;SDS011;49472;49.880;8.650;2023-04-24T07:15:47;58.47;;;18.47;;
63346;SDS011;49472;49.880;8.650;2023-04-24T07:18:15;17.83;;;15.10;;
63346;SDS011;49472;49.880;8.650;2023-04-24T07:20:40;14.90;;;13.50;;
63346;SDS011;49472;49.880;8.650;2023-04-24T07:23:06;15.13;;;13.70;;
63346;SDS011;49472;49.880;8.650;2023-04-24T07:25:31;28.43;;;15.63;;
63346;SDS011;49472;49.880;8.650;2023-04-24T07:27:56;15.80;;;14.60;;
63346;SDS011;49472;49.880;8.650;2023-04-24T07:30:22;16.03;;;14.73;;
63346;SDS011;49472;49.880;8.650;2023-04-24T07:32:47;15.90;;;14.40;;
63346;SDS011;49472;49.880;8.650;2023-04-24T07:35:12;15.27;;;14.07;;
63346;SDS011;49472;49.880;8.650;2023-04-24T07:37:38;16.20;;;14.80;;
63346;SDS011;49472;49.880;8.650;2023-04-24T07:40:03;16.17;;;14.70;;
63346;SDS011;49472;49.880;8.650;2023-04-24T07:42:29;16.53;;;15.00;;
63346;SDS011;49472;49.880;8.650;2023-04-24T07:44:55;16.20;;;14.70;;
63346;SDS011;49472;49.880;8.650;2023-04-24T07:47:21;15.30;;;13.87;;
63346;SDS011;49472;49.880;8.650;2023-04-24T07:49:46;16.30;;;14.90;;
63346;SDS011;49472;49.880;8.650;2023-04-24T07:52:12;16.13;;;14.50;;
63346;SDS011;49472;49.880;8.650;2023-04-24T07:54:37;16.83;;;15.20;;
63346;SDS011;49472;49.880;8.650;2023-04-24T07:57:02;19.07;;;15.37;;
63346;SDS011;49472;49.880;8.650;2023-04-24T07:59:28;16.80;;;15.30;;
63346;SDS011;49472;49.880;8.650;2023-04-24T08:01:53;16.23;;;14.90;;
63346;SDS011;49472;49.880;8.650;2023-04-24T08:04:19;15.00;;;14.00;;
63346;SDS011;49472;49.880;8.650;2023-04-24T08:06:44;14.70;;;13.37;;
63346;SDS011;49472;49.880;8.650;2023-04-24T08:09:10;17.80;;;12.60;;
63346;SDS011;49472;49.880;8.650;2023-04-24T08:11:35;13.37;;;12.40;;
63346;SDS011;49472;49.880;8.650;2023-04-24T08:14:00;12.87;;;12.07;;
63346;SDS011;49472;49.880;8.650;2023-04-24T08:16:26;14.17;;;13.00;;
63346;SDS011;49472;49.880;8.650;2023-04-24T08:18:52;13.73;;;12.53;;
63346;SDS011;49472;49.880;8.650;2023-04-24T08:21:18;13.43;;;12.53;;
63346;SDS011;49472;49.880;8.650;2023-04-24T08:23:44;13.67;;;12.60;;
63346;SDS011;49472;49.880;8.650;2023-04-24T08:26:10;13.53;;;12.63;;
63346;SDS011;49472;49.880;8.650;2023-04-24T08:28:36;18.63;;;13.63;;
63346;SDS011;49472;49.880;8.650;2023-04-24T08:31:02;13.90;;;12.70;;
63346;SDS011;49472;49.880;8.650;2023-04-24T08:33:27;13.37;;;12.47;;
63346;SDS011;49472;49.880;8.650;2023-04-24T08:35:57;13.93;;;12.70;;
63346;SDS011;49472;49.880;8.650;2023-04-24T08:38:23;13.00;;;12.30;;
63346;SDS011;49472;49.880;8.650;2023-04-24T08:40:48;13.37;;;12.37;;
63346;SDS011;49472;49.880;8.650;2023-04-24T08:43:14;13.53;;;12.60;;
63346;SDS011;49472;49.880;8.650;2023-04-24T08:45:41;13.70;;;12.73;;
63346;SDS011;49472;49.880;8.650;2023-04-24T08:48:06;13.13;;;12.03;;
63346;SDS011;49472;49.880;8.650;2023-04-24T08:50:32;13.00;;;12.20;;
63346;SDS011;49472;49.880;8.650;2023-04-24T08:52:58;13.70;;;12.70;;
63346;SDS011;49472;49.880;8.650;2023-04-24T08:55:24;14.40;;;13.40;;
63346;SDS011;49472;49.880;8.650;2023-04-24T08:57:51;16.43;;;14.27;;
63346;SDS011;49472;49.880;8.650;2023-04-24T09:00:18;13.97;;;12.97;;
63346;SDS011;49472;49.880;8.650;2023-04-24T09:02:45;13.20;;;12.40;;
63346;SDS011;49472;49.880;8.650;2023-04-24T09:05:13;13.30;;;12.40;;
63346;SDS011;49472;49.880;8.650;2023-04-24T09:07:41;14.83;;;13.50;;
63346;SDS011;49472;49.880;8.650;2023-04-24T09:10:09;14.37;;;13.37;;
63346;SDS011;49472;49.880;8.650;2023-04-24T09:12:35;14.00;;;13.00;;
63346;SDS011;49472;49.880;8.650;2023-04-24T09:15:01;14.37;;;12.90;;
63346;SDS011;49472;49.880;8.650;2023-04-24T09:17:29;13.20;;;12.50;;
63346;SDS011;49472;49.880;8.650;2023-04-24T09:19:56;18.13;;;14.80;;
63346;SDS011;49472;49.880;8.650;2023-04-24T09:22:21;17.80;;;13.43;;
63346;SDS011;49472;49.880;8.650;2023-04-24T09:24:46;13.43;;;12.53;;
63346;SDS011;49472;49.880;8.650;2023-04-24T09:27:12;15.00;;;13.63;;
63346;SDS011;49472;49.880;8.650;2023-04-24T09:29:39;13.77;;;12.60;;
63346;SDS011;49472;49.880;8.650;2023-04-24T09:32:19;13.40;;;12.60;;
63346;SDS011;49472;49.880;8.650;2023-04-24T09:35:04;14.77;;;13.67;;
63346;SDS011;49472;49.880;8.650;2023-04-24T09:37:36;14.77;;;13.30;;
63346;SDS011;49472;49.880;8.650;2023-04-24T09:42:33;13.27;;;12.27;;
63346;SDS011;49472;49.880;8.650;2023-04-24T09:44:59;14.27;;;12.50;;
63346;SDS011;49472;49.880;8.650;2023-04-24T09:47:24;13.87;;;12.97;;
63346;SDS011;49472;49.880;8.650;2023-04-24T09:49:49;13.17;;;12.40;;
63346;SDS011;49472;49.880;8.650;2023-04-24T09:52:15;13.23;;;12.43;;
63346;SDS011;49472;49.880;8.650;2023-04-24T09:54:40;14.13;;;13.03;;
63346;SDS011;49472;49.880;8.650;2023-04-24T09:57:08;26.83;;;13.53;;
63346;SDS011;49472;49.880;8.650;2023-04-24T09:59:35;15.43;;;12.40;;
63346;SDS011;49472;49.880;8.650;2023-04-24T10:02:03;13.70;;;12.37;;
63346;SDS011;49472;49.880;8.650;2023-04-24T10:04:53;13.27;;;12.27;;
63346;SDS011;49472;49.880;8.650;2023-04-24T10:07:21;20.63;;;12.70;;
63346;SDS011;49472;49.880;8.650;2023-04-24T10:09:46;17.77;;;12.77;;
63346;SDS011;49472;49.880;8.650;2023-04-24T10:12:12;12.73;;;11.73;;
63346;SDS011;49472;49.880;8.650;2023-04-24T10:14:38;12.13;;;11.43;;
63346;SDS011;49472;49.880;8.650;2023-04-24T10:17:03;15.07;;;11.80;;
63346;SDS011;49472;49.880;8.650;2023-04-24T10:19:32;13.30;;;12.50;;
63346;SDS011;49472;49.880;8.650;2023-04-24T10:21:59;12.93;;;12.03;;
63346;SDS011;49472;49.880;8.650;2023-04-24T10:24:25;12.70;;;11.60;;
63346;SDS011;49472;49.880;8.650;2023-04-24T10:26:51;13.33;;;11.77;;
63346;SDS011;49472;49.880;8.650;2023-04-24T10:29:18;13.80;;;12.90;;
63346;SDS011;49472;49.880;8.650;2023-04-24T10:31:44;12.40;;;11.70;;
63346;SDS011;49472;49.880;8.650;2023-04-24T10:34:13;13.83;;;12.67;;
63346;SDS011;49472;49.880;8.650;2023-04-24T10:36:41;13.07;;;12.17;;
63346;SDS011;49472;49.880;8.650;2023-04-24T10:39:11;13.53;;;12.60;;
63346;SDS011;49472;49.880;8.650;2023-04-24T10:41:39;13.23;;;12.43;;
63346;SDS011;49472;49.880;8.650;2023-04-24T10:46:34;14.00;;;13.00;;
63346;SDS011;49472;49.880;8.650;2023-04-24T10:49:03;13.17;;;12.37;;
63346;SDS011;49472;49.880;8.650;2023-04-24T10:56:51;13.97;;;13.00;;
63346;SDS011;49472;49.880;8.650;2023-04-24T10:59:26;13.60;;;12.60;;
63346;SDS011;49472;49.880;8.650;2023-04-24T11:01:59;14.53;;;13.60;;
63346;SDS011;49472;49.880;8.650;2023-04-24T11:04:31;13.40;;;12.50;;
63346;SDS011;49472;49.880;8.650;2023-04-24T11:06:57;14.33;;;13.13;;
63346;SDS011;49472;49.880;8.650;2023-04-24T11:09:23;13.27;;;12.33;;
63346;SDS011;49472;49.880;8.650;2023-04-24T11:11:51;13.30;;;12.30;;
63346;SDS011;49472;49.880;8.650;2023-04-24T11:17:44;14.63;;;13.20;;
63346;SDS011;49472;49.880;8.650;2023-04-24T11:20:15;13.00;;;11.93;;
63346;SDS011;49472;49.880;8.650;2023-04-24T11:22:42;13.30;;;12.40;;
63346;SDS011;49472;49.880;8.650;2023-04-24T11:25:08;12.70;;;11.90;;
63346;SDS011;49472;49.880;8.650;2023-04-24T11:27:40;13.80;;;12.83;;
63346;SDS011;49472;49.880;8.650;2023-04-24T11:30:07;17.70;;;12.33;;
63346;SDS011;49472;49.880;8.650;2023-04-24T11:34:59;13.00;;;11.93;;
63346;SDS011;49472;49.880;8.650;2023-04-24T11:37:27;13.10;;;11.80;;
63346;SDS011;49472;49.880;8.650;2023-04-24T11:39:55;13.93;;;12.77;;
63346;SDS011;49472;49.880;8.650;2023-04-24T11:42:22;13.30;;;12.30;;
63346;SDS011;49472;49.880;8.650;2023-04-24T11:44:54;13.30;;;12.30;;
63346;SDS011;49472;49.880;8.650;2023-04-24T11:47:31;13.67;;;12.47;;
63346;SDS011;49472;49.880;8.650;2023-04-24T11:49:58;15.60;;;12.37;;
63346;SDS011;49472;49.880;8.650;2023-04-24T11:52:25;13.93;;;11.90;;
63346;SDS011;49472;49.880;8.650;2023-04-24T11:54:51;13.87;;;12.67;;
63346;SDS011;49472;49.880;8.650;2023-04-24T11:57:19;13.00;;;11.70;;
63346;SDS011;49472;49.880;8.650;2023-04-24T11:59:45;12.40;;;11.47;;
63346;SDS011;49472;49.880;8.650;2023-04-24T12:02:19;12.90;;;11.80;;
63346;SDS011;49472;49.880;8.650;2023-04-24T12:04:55;15.00;;;10.03;;
63346;SDS011;49472;49.880;8.650;2023-04-24T12:07:21;10.73;;;9.93;;
63346;SDS011;49472;49.880;8.650;2023-04-24T12:09:47;11.53;;;10.53;;
63346;SDS011;49472;49.880;8.650;2023-04-24T12:12:15;12.20;;;11.17;;
63346;SDS011;49472;49.880;8.650;2023-04-24T12:14:42;11.23;;;10.43;;
63346;SDS011;49472;49.880;8.650;2023-04-24T12:17:08;11.30;;;10.40;;
63346;SDS011;49472;49.880;8.650;2023-04-24T12:19:33;10.83;;;9.80;;
63346;SDS011;49472;49.880;8.650;2023-04-24T12:22:02;10.20;;;9.50;;
63346;SDS011;49472;49.880;8.650;2023-04-24T12:24:30;9.50;;;8.90;;
63346;SDS011;49472;49.880;8.650;2023-04-24T12:26:56;9.87;;;9.17;;
63346;SDS011;49472;49.880;8.650;2023-04-24T12:29:21;11.23;;;10.63;;
63346;SDS011;49472;49.880;8.650;2023-04-24T12:31:47;10.10;;;9.50;;
63346;SDS011;49472;49.880;8.650;2023-04-24T12:34:23;12.03;;;11.23;;
63346;SDS011;49472;49.880;8.650;2023-04-24T12:36:49;12.07;;;11.27;;
63346;SDS011;49472;49.880;8.650;2023-04-24T12:39:16;13.67;;;12.60;;
63346;SDS011;49472;49.880;8.650;2023-04-24T12:41:50;14.20;;;13.20;;
63346;SDS011;49472;49.880;8.650;2023-04-24T12:44:29;13.47;;;12.63;;
63346;SDS011;49472;49.880;8.650;2023-04-24T12:46:56;15.00;;;12.00;;
63346;SDS011;49472;49.880;8.650;2023-04-24T12:49:21;13.83;;;12.83;;
63346;SDS011;49472;49.880;8.650;2023-04-24T12:51:46;14.53;;;13.03;;
63346;SDS011;49472;49.880;8.650;2023-04-24T12:54:12;14.13;;;13.13;;
63346;SDS011;49472;49.880;8.650;2023-04-24T12:56:37;15.03;;;13.93;;
63346;SDS011;49472;49.880;8.650;2023-04-24T12:59:04;14.33;;;13.43;;
63346;SDS011;49472;49.880;8.650;2023-04-24T13:01:30;15.33;;;14.13;;
63346;SDS011;49472;49.880;8.650;2023-04-24T13:03:55;15.40;;;14.20;;
63346;SDS011;49472;49.880;8.650;2023-04-24T13:06:21;16.97;;;14.90;;
63346;SDS011;49472;49.880;8.650;2023-04-24T13:08:46;14.73;;;13.70;;
63346;SDS011;49472;49.880;8.650;2023-04-24T13:11:12;15.10;;;14.00;;
63346;SDS011;49472;49.880;8.650;2023-04-24T13:13:38;15.30;;;14.13;;
63346;SDS011;49472;49.880;8.650;2023-04-24T13:16:03;14.23;;;13.00;;
63346;SDS011;49472;49.880;8.650;2023-04-24T13:18:29;14.30;;;13.10;;
63346;SDS011;49472;49.880;8.650;2023-04-24T13:20:54;13.40;;;12.50;;
63346;SDS011;49472;49.880;8.650;2023-04-24T13:23:20;14.17;;;13.07;;
63346;SDS011;49472;49.880;8.650;2023-04-24T13:25:46;16.70;;;12.60;;
63346;SDS011;49472;49.880;8.650;2023-04-24T13:28:12;14.47;;;13.40;;
63346;SDS011;49472;49.880;8.650;2023-04-24T13:30:37;14.13;;;12.83;;
63346;SDS011;49472;49.880;8.650;2023-04-24T13:33:03;13.80;;;12.80;;
63346;SDS011;49472;49.880;8.650;2023-04-24T13:35:28;13.27;;;12.37;;
63346;SDS011;49472;49.880;8.650;2023-04-24T13:37:54;14.50;;;13.17;;
63346;SDS011;49472;49.880;8.650;2023-04-24T13:40:19;15.40;;;13.50;;
63346;SDS011;49472;49.880;8.650;2023-04-24T13:42:44;14.20;;;13.20;;
63346;SDS011;49472;49.880;8.650;2023-04-24T13:45:10;13.50;;;12.50;;
63346;SDS011;49472;49.880;8.650;2023-04-24T13:47:35;18.43;;;14.47;;
63346;SDS011;49472;49.880;8.650;2023-04-24T13:50:01;14.23;;;13.30;;
63346;SDS011;49472;49.880;8.650;2023-04-24T13:52:27;15.83;;;14.27;;
63346;SDS011;49472;49.880;8.650;2023-04-24T13:54:52;15.30;;;14.00;;
63346;SDS011;49472;49.880;8.650;2023-04-24T13:57:17;15.10;;;13.67;;
63346;SDS011;49472;49.880;8.650;2023-04-24T13:59:43;15.07;;;13.77;;
63346;SDS011;49472;49.880;8.650;2023-04-24T14:02:08;15.67;;;14.57;;
63346;SDS011;49472;49.880;8.650;2023-04-24T14:04:33;16.60;;;15.30;;
63346;SDS011;49472;49.880;8.650;2023-04-24T14:06:59;16.60;;;15.13;;
63346;SDS011;49472;49.880;8.650;2023-04-24T14:09:24;15.10;;;13.80;;
63346;SDS011;49472;49.880;8.650;2023-04-24T14:11:49;15.00;;;13.80;;
63346;SDS011;49472;49.880;8.650;2023-04-24T14:14:16;14.90;;;13.70;;
63346;SDS011;49472;49.880;8.650;2023-04-24T14:16:41;14.53;;;13.43;;
63346;SDS011;49472;49.880;8.650;2023-04-24T14:19:07;14.67;;;13.60;;
63346;SDS011;49472;49.880;8.650;2023-04-24T14:21:32;20.73;;;14.17;;
63346;SDS011;49472;49.880;8.650;2023-04-24T14:23:58;14.53;;;13.43;;
63346;SDS011;49472;49.880;8.650;2023-04-24T14:26:23;14.03;;;13.03;;
63346;SDS011;49472;49.880;8.650;2023-04-24T14:28:50;13.93;;;13.03;;
63346;SDS011;49472;49.880;8.650;2023-04-24T14:31:15;13.50;;;12.60;;
63346;SDS011;49472;49.880;8.650;2023-04-24T14:33:41;20.83;;;14.63;;
63346;SDS011;49472;49.880;8.650;2023-04-24T14:36:06;14.17;;;13.13;;
63346;SDS011;49472;49.880;8.650;2023-04-24T14:38:33;15.67;;;14.47;;
63346;SDS011;49472;49.880;8.650;2023-04-24T14:40:59;15.20;;;13.90;;